sensor_id;sensor_type;location;lat;lon;timestamp;P1;durP1;ratioP1;P2;durP2;ratioP2
31798;SDS011;18374;51.136;3.502;2023-06-14T00:02:05;7.35;;;3.70;;
31798;SDS011;18374;51.136;3.502;2023-06-14T00:04:35;5.53;;;3.70;;
31798;SDS011;18374;51.136;3.502;2023-06-14T00:07:05;9.05;;;4.07;;
31798;SDS011;18374;51.136;3.502;2023-06-14T00:09:38;5.63;;;3.92;;
31798;SDS011;18374;51.136;3.502;2023-06-14T00:12:06;8.07;;;4.18;;
31798;SDS011;18374;51.136;3.502;2023-06-14T00:14:35;10.02;;;4.20;;
31798;SDS011;18374;51.136;3.502;2023-06-14T00:17:03;6.13;;;4.32;;
31798;SDS011;18374;51.136;3.502;2023-06-14T00:19:31;12.00;;;4.60;;
31798;SDS011;18374;51.136;3.502;2023-06-14T00:22:00;6.40;;;4.30;;
31798;SDS011;18374;51.136;3.502;2023-06-14T00:24:28;7.32;;;3.63;;
31798;SDS011;18374;51.136;3.502;2023-06-14T00:26:55;9.23;;;4.35;;
31798;SDS011;18374;51.136;3.502;2023-06-14T00:29:23;7.50;;;4.50;;
31798;SDS011;18374;51.136;3.502;2023-06-14T00:31:54;10.75;;;4.20;;
31798;SDS011;18374;51.136;3.502;2023-06-14T00:34:22;11.85;;;4.72;;
31798;SDS011;18374;51.136;3.502;2023-06-14T00:36:50;7.20;;;4.03;;
31798;SDS011;18374;51.136;3.502;2023-06-14T00:39:18;10.57;;;5.05;;
31798;SDS011;18374;51.136;3.502;2023-06-14T00:41:45;12.57;;;4.88;;
31798;SDS011;18374;51.136;3.502;2023-06-14T00:44:13;10.02;;;5.05;;
31798;SDS011;18374;51.136;3.502;2023-06-14T00:46:45;5.53;;;4.43;;
31798;SDS011;18374;51.136;3.502;2023-06-14T00:49:15;9.95;;;5.07;;
31798;SDS011;18374;51.136;3.502;2023-06-14T00:51:46;8.95;;;4.95;;
31798;SDS011;18374;51.136;3.502;2023-06-14T00:54:14;7.25;;;4.70;;
31798;SDS011;18374;51.136;3.502;2023-06-14T00:56:42;10.52;;;5.18;;
31798;SDS011;18374;51.136;3.502;2023-06-14T00:59:11;8.57;;;4.95;;
31798;SDS011;18374;51.136;3.502;2023-06-14T01:01:40;8.75;;;5.10;;
31798;SDS011;18374;51.136;3.502;2023-06-14T01:04:08;9.00;;;4.90;;
31798;SDS011;18374;51.136;3.502;2023-06-14T01:09:40;10.07;;;5.28;;
31798;SDS011;18374;51.136;3.502;2023-06-14T01:12:55;14.00;;;5.20;;
31798;SDS011;18374;51.136;3.502;2023-06-14T01:15:58;9.95;;;5.00;;
31798;SDS011;18374;51.136;3.502;2023-06-14T01:18:27;9.40;;;5.22;;
31798;SDS011;18374;51.136;3.502;2023-06-14T01:20:56;9.13;;;5.57;;
31798;SDS011;18374;51.136;3.502;2023-06-14T01:23:24;10.13;;;6.18;;
31798;SDS011;18374;51.136;3.502;2023-06-14T01:25:59;12.05;;;5.97;;
31798;SDS011;18374;51.136;3.502;2023-06-14T01:28:31;9.45;;;5.75;;
31798;SDS011;18374;51.136;3.502;2023-06-14T01:31:01;12.35;;;5.95;;
31798;SDS011;18374;51.136;3.502;2023-06-14T01:33:33;9.85;;;5.82;;
31798;SDS011;18374;51.136;3.502;2023-06-14T01:36:03;10.40;;;5.80;;
31798;SDS011;18374;51.136;3.502;2023-06-14T01:38:34;19.60;;;5.78;;
31798;SDS011;18374;51.136;3.502;2023-06-14T01:41:03;8.90;;;5.45;;
31798;SDS011;18374;51.136;3.502;2023-06-14T01:43:31;9.88;;;5.57;;
31798;SDS011;18374;51.136;3.502;2023-06-14T01:46:04;9.75;;;6.03;;
31798;SDS011;18374;51.136;3.502;2023-06-14T01:48:34;10.13;;;6.15;;
31798;SDS011;18374;51.136;3.502;2023-06-14T01:51:03;7.30;;;5.07;;
31798;SDS011;18374;51.136;3.502;2023-06-14T01:53:31;9.85;;;5.50;;
31798;SDS011;18374;51.136;3.502;2023-06-14T01:55:58;14.73;;;5.25;;
31798;SDS011;18374;51.136;3.502;2023-06-14T01:58:30;11.05;;;4.97;;
31798;SDS011;18374;51.136;3.502;2023-06-14T02:00:58;9.68;;;4.97;;
31798;SDS011;18374;51.136;3.502;2023-06-14T02:03:31;8.05;;;5.18;;
31798;SDS011;18374;51.136;3.502;2023-06-14T02:05:59;7.03;;;4.47;;
31798;SDS011;18374;51.136;3.502;2023-06-14T02:08:28;6.72;;;4.47;;
31798;SDS011;18374;51.136;3.502;2023-06-14T02:10:55;7.43;;;4.85;;
31798;SDS011;18374;51.136;3.502;2023-06-14T02:13:26;8.43;;;4.88;;
31798;SDS011;18374;51.136;3.502;2023-06-14T02:15:54;5.70;;;4.32;;
31798;SDS011;18374;51.136;3.502;2023-06-14T02:18:22;7.47;;;4.82;;
31798;SDS011;18374;51.136;3.502;2023-06-14T02:20:50;7.05;;;4.75;;
31798;SDS011;18374;51.136;3.502;2023-06-14T02:23:18;8.52;;;4.90;;
31798;SDS011;18374;51.136;3.502;2023-06-14T02:25:46;7.68;;;4.72;;
31798;SDS011;18374;51.136;3.502;2023-06-14T02:28:14;8.23;;;4.85;;
31798;SDS011;18374;51.136;3.502;2023-06-14T02:30:42;6.85;;;4.53;;
31798;SDS011;18374;51.136;3.502;2023-06-14T02:33:09;8.30;;;4.40;;
31798;SDS011;18374;51.136;3.502;2023-06-14T02:35:40;8.93;;;4.63;;
31798;SDS011;18374;51.136;3.502;2023-06-14T02:38:08;7.55;;;4.82;;
31798;SDS011;18374;51.136;3.502;2023-06-14T02:40:36;7.38;;;4.82;;
31798;SDS011;18374;51.136;3.502;2023-06-14T02:43:04;9.93;;;5.50;;
31798;SDS011;18374;51.136;3.502;2023-06-14T02:45:32;8.60;;;4.57;;
31798;SDS011;18374;51.136;3.502;2023-06-14T02:47:59;8.25;;;4.32;;
31798;SDS011;18374;51.136;3.502;2023-06-14T02:50:27;7.40;;;4.88;;
31798;SDS011;18374;51.136;3.502;2023-06-14T02:52:56;7.47;;;4.72;;
31798;SDS011;18374;51.136;3.502;2023-06-14T02:55:25;6.82;;;5.00;;
31798;SDS011;18374;51.136;3.502;2023-06-14T02:57:53;9.57;;;5.05;;
31798;SDS011;18374;51.136;3.502;2023-06-14T03:00:21;7.05;;;5.45;;
31798;SDS011;18374;51.136;3.502;2023-06-14T03:02:50;8.50;;;4.72;;
31798;SDS011;18374;51.136;3.502;2023-06-14T03:05:18;10.82;;;5.53;;
31798;SDS011;18374;51.136;3.502;2023-06-14T03:07:48;7.75;;;4.53;;
31798;SDS011;18374;51.136;3.502;2023-06-14T03:10:18;11.32;;;5.22;;
31798;SDS011;18374;51.136;3.502;2023-06-14T03:12:46;9.18;;;5.25;;
31798;SDS011;18374;51.136;3.502;2023-06-14T03:15:15;7.88;;;5.05;;
31798;SDS011;18374;51.136;3.502;2023-06-14T03:17:47;9.75;;;5.28;;
31798;SDS011;18374;51.136;3.502;2023-06-14T03:20:17;7.75;;;5.22;;
31798;SDS011;18374;51.136;3.502;2023-06-14T03:22:47;9.27;;;5.70;;
31798;SDS011;18374;51.136;3.502;2023-06-14T03:25:15;8.45;;;5.45;;
31798;SDS011;18374;51.136;3.502;2023-06-14T03:27:45;9.48;;;5.70;;
31798;SDS011;18374;51.136;3.502;2023-06-14T03:30:13;9.10;;;4.35;;
31798;SDS011;18374;51.136;3.502;2023-06-14T03:32:45;13.30;;;5.30;;
31798;SDS011;18374;51.136;3.502;2023-06-14T03:35:14;8.65;;;5.38;;
31798;SDS011;18374;51.136;3.502;2023-06-14T03:37:47;9.68;;;5.25;;
31798;SDS011;18374;51.136;3.502;2023-06-14T03:40:16;11.65;;;5.07;;
31798;SDS011;18374;51.136;3.502;2023-06-14T03:42:50;8.45;;;5.30;;
31798;SDS011;18374;51.136;3.502;2023-06-14T03:45:19;8.88;;;5.50;;
31798;SDS011;18374;51.136;3.502;2023-06-14T03:47:47;11.18;;;5.32;;
31798;SDS011;18374;51.136;3.502;2023-06-14T03:50:16;8.23;;;5.00;;
31798;SDS011;18374;51.136;3.502;2023-06-14T03:52:46;11.45;;;6.05;;
31798;SDS011;18374;51.136;3.502;2023-06-14T03:55:16;12.90;;;5.53;;
31798;SDS011;18374;51.136;3.502;2023-06-14T03:57:47;7.53;;;5.28;;
31798;SDS011;18374;51.136;3.502;2023-06-14T04:00:17;8.07;;;5.63;;
31798;SDS011;18374;51.136;3.502;2023-06-14T04:02:45;10.13;;;6.03;;
31798;SDS011;18374;51.136;3.502;2023-06-14T04:05:13;8.30;;;5.40;;
31798;SDS011;18374;51.136;3.502;2023-06-14T04:07:46;10.27;;;5.03;;
31798;SDS011;18374;51.136;3.502;2023-06-14T04:10:16;7.40;;;5.35;;
31798;SDS011;18374;51.136;3.502;2023-06-14T04:12:44;13.38;;;5.43;;
31798;SDS011;18374;51.136;3.502;2023-06-14T04:15:12;9.05;;;5.88;;
31798;SDS011;18374;51.136;3.502;2023-06-14T04:17:49;8.43;;;5.57;;
31798;SDS011;18374;51.136;3.502;2023-06-14T04:20:20;10.95;;;6.10;;
31798;SDS011;18374;51.136;3.502;2023-06-14T04:22:49;9.48;;;5.35;;
31798;SDS011;18374;51.136;3.502;2023-06-14T04:25:17;7.63;;;5.18;;
31798;SDS011;18374;51.136;3.502;2023-06-14T04:27:51;10.05;;;5.28;;
31798;SDS011;18374;51.136;3.502;2023-06-14T04:30:20;15.80;;;6.22;;
31798;SDS011;18374;51.136;3.502;2023-06-14T04:32:52;11.50;;;4.93;;
31798;SDS011;18374;51.136;3.502;2023-06-14T04:35:21;9.02;;;5.30;;
31798;SDS011;18374;51.136;3.502;2023-06-14T04:37:51;10.48;;;6.35;;
31798;SDS011;18374;51.136;3.502;2023-06-14T04:40:21;7.65;;;4.70;;
31798;SDS011;18374;51.136;3.502;2023-06-14T04:42:48;8.95;;;5.63;;
31798;SDS011;18374;51.136;3.502;2023-06-14T04:45:18;9.90;;;5.13;;
31798;SDS011;18374;51.136;3.502;2023-06-14T04:47:47;10.13;;;5.18;;
31798;SDS011;18374;51.136;3.502;2023-06-14T04:50:15;10.48;;;5.60;;
31798;SDS011;18374;51.136;3.502;2023-06-14T04:52:45;8.80;;;5.47;;
31798;SDS011;18374;51.136;3.502;2023-06-14T04:55:13;8.13;;;5.30;;
31798;SDS011;18374;51.136;3.502;2023-06-14T04:57:41;9.90;;;5.38;;
31798;SDS011;18374;51.136;3.502;2023-06-14T05:00:10;13.55;;;6.07;;
31798;SDS011;18374;51.136;3.502;2023-06-14T05:02:39;9.60;;;5.18;;
31798;SDS011;18374;51.136;3.502;2023-06-14T05:05:08;7.25;;;5.63;;
31798;SDS011;18374;51.136;3.502;2023-06-14T05:07:36;14.57;;;5.18;;
31798;SDS011;18374;51.136;3.502;2023-06-14T05:10:08;8.02;;;5.35;;
31798;SDS011;18374;51.136;3.502;2023-06-14T05:12:37;10.18;;;5.68;;
31798;SDS011;18374;51.136;3.502;2023-06-14T05:15:07;14.80;;;5.47;;
31798;SDS011;18374;51.136;3.502;2023-06-14T05:17:37;10.38;;;5.65;;
31798;SDS011;18374;51.136;3.502;2023-06-14T05:20:07;10.15;;;5.78;;
31798;SDS011;18374;51.136;3.502;2023-06-14T05:22:37;15.00;;;6.70;;
31798;SDS011;18374;51.136;3.502;2023-06-14T05:25:04;12.93;;;5.35;;
31798;SDS011;18374;51.136;3.502;2023-06-14T05:27:33;8.55;;;5.72;;
31798;SDS011;18374;51.136;3.502;2023-06-14T05:30:03;7.35;;;5.43;;
31798;SDS011;18374;51.136;3.502;2023-06-14T05:32:31;9.20;;;5.40;;
31798;SDS011;18374;51.136;3.502;2023-06-14T05:34:58;11.30;;;5.95;;
31798;SDS011;18374;51.136;3.502;2023-06-14T05:37:26;11.32;;;5.65;;
31798;SDS011;18374;51.136;3.502;2023-06-14T05:39:54;14.75;;;5.88;;
31798;SDS011;18374;51.136;3.502;2023-06-14T05:42:22;10.73;;;6.30;;
31798;SDS011;18374;51.136;3.502;2023-06-14T05:44:49;7.50;;;5.10;;
31798;SDS011;18374;51.136;3.502;2023-06-14T05:47:17;9.50;;;5.70;;
31798;SDS011;18374;51.136;3.502;2023-06-14T05:49:45;11.60;;;5.55;;
31798;SDS011;18374;51.136;3.502;2023-06-14T05:52:12;10.35;;;5.28;;
31798;SDS011;18374;51.136;3.502;2023-06-14T05:54:40;10.65;;;5.28;;
31798;SDS011;18374;51.136;3.502;2023-06-14T05:57:08;9.15;;;5.68;;
31798;SDS011;18374;51.136;3.502;2023-06-14T05:59:36;15.63;;;5.65;;
31798;SDS011;18374;51.136;3.502;2023-06-14T06:02:03;12.02;;;5.88;;
31798;SDS011;18374;51.136;3.502;2023-06-14T06:04:32;11.73;;;5.57;;
31798;SDS011;18374;51.136;3.502;2023-06-14T06:06:59;12.60;;;6.18;;
31798;SDS011;18374;51.136;3.502;2023-06-14T06:09:27;10.38;;;5.45;;
31798;SDS011;18374;51.136;3.502;2023-06-14T06:11:55;8.75;;;5.38;;
31798;SDS011;18374;51.136;3.502;2023-06-14T06:14:23;11.20;;;5.63;;
31798;SDS011;18374;51.136;3.502;2023-06-14T06:16:50;9.75;;;6.05;;
31798;SDS011;18374;51.136;3.502;2023-06-14T06:19:19;12.32;;;5.60;;
31798;SDS011;18374;51.136;3.502;2023-06-14T06:21:47;8.50;;;5.43;;
31798;SDS011;18374;51.136;3.502;2023-06-14T06:24:15;7.95;;;5.78;;
31798;SDS011;18374;51.136;3.502;2023-06-14T06:26:43;7.45;;;5.15;;
31798;SDS011;18374;51.136;3.502;2023-06-14T06:29:11;16.75;;;6.20;;
31798;SDS011;18374;51.136;3.502;2023-06-14T06:31:39;12.05;;;6.28;;
31798;SDS011;18374;51.136;3.502;2023-06-14T06:34:06;10.73;;;6.47;;
31798;SDS011;18374;51.136;3.502;2023-06-14T06:36:34;14.45;;;6.35;;
31798;SDS011;18374;51.136;3.502;2023-06-14T06:39:02;9.35;;;6.13;;
31798;SDS011;18374;51.136;3.502;2023-06-14T06:41:37;11.73;;;6.22;;
31798;SDS011;18374;51.136;3.502;2023-06-14T06:44:07;12.50;;;6.47;;
31798;SDS011;18374;51.136;3.502;2023-06-14T06:46:35;11.43;;;6.18;;
31798;SDS011;18374;51.136;3.502;2023-06-14T06:49:07;12.27;;;5.95;;
31798;SDS011;18374;51.136;3.502;2023-06-14T06:51:35;9.38;;;6.40;;
31798;SDS011;18374;51.136;3.502;2023-06-14T06:54:03;9.15;;;4.90;;
31798;SDS011;18374;51.136;3.502;2023-06-14T06:56:33;8.65;;;5.85;;
31798;SDS011;18374;51.136;3.502;2023-06-14T06:59:01;10.07;;;6.05;;
31798;SDS011;18374;51.136;3.502;2023-06-14T07:01:29;10.63;;;5.40;;
31798;SDS011;18374;51.136;3.502;2023-06-14T07:03:57;8.15;;;5.22;;
31798;SDS011;18374;51.136;3.502;2023-06-14T07:06:25;11.50;;;5.35;;
31798;SDS011;18374;51.136;3.502;2023-06-14T07:08:54;12.82;;;6.22;;
31798;SDS011;18374;51.136;3.502;2023-06-14T07:11:21;11.98;;;6.07;;
31798;SDS011;18374;51.136;3.502;2023-06-14T07:13:49;13.77;;;5.85;;
31798;SDS011;18374;51.136;3.502;2023-06-14T07:16:17;13.63;;;6.20;;
31798;SDS011;18374;51.136;3.502;2023-06-14T07:18:45;12.60;;;6.20;;
31798;SDS011;18374;51.136;3.502;2023-06-14T07:21:13;15.88;;;6.18;;
31798;SDS011;18374;51.136;3.502;2023-06-14T07:23:41;13.82;;;6.28;;
31798;SDS011;18374;51.136;3.502;2023-06-14T07:26:08;17.70;;;6.88;;
31798;SDS011;18374;51.136;3.502;2023-06-14T07:28:36;15.57;;;6.38;;
31798;SDS011;18374;51.136;3.502;2023-06-14T07:31:04;16.85;;;6.72;;
31798;SDS011;18374;51.136;3.502;2023-06-14T07:33:32;14.45;;;7.28;;
31798;SDS011;18374;51.136;3.502;2023-06-14T07:36:00;10.70;;;5.57;;
31798;SDS011;18374;51.136;3.502;2023-06-14T07:38:27;12.80;;;6.95;;
31798;SDS011;18374;51.136;3.502;2023-06-14T07:40:55;18.17;;;7.93;;
31798;SDS011;18374;51.136;3.502;2023-06-14T07:43:23;15.35;;;8.10;;
31798;SDS011;18374;51.136;3.502;2023-06-14T07:45:50;21.02;;;8.55;;
31798;SDS011;18374;51.136;3.502;2023-06-14T07:48:33;21.23;;;8.55;;
31798;SDS011;18374;51.136;3.502;2023-06-14T07:51:01;21.58;;;10.05;;
31798;SDS011;18374;51.136;3.502;2023-06-14T07:53:30;21.73;;;10.65;;
31798;SDS011;18374;51.136;3.502;2023-06-14T07:55:58;24.77;;;10.05;;
31798;SDS011;18374;51.136;3.502;2023-06-14T07:58:26;25.10;;;11.82;;
31798;SDS011;18374;51.136;3.502;2023-06-14T08:00:54;31.65;;;13.90;;
31798;SDS011;18374;51.136;3.502;2023-06-14T08:03:22;28.27;;;12.27;;
31798;SDS011;18374;51.136;3.502;2023-06-14T08:05:50;21.63;;;10.65;;
31798;SDS011;18374;51.136;3.502;2023-06-14T08:08:18;16.48;;;8.00;;
31798;SDS011;18374;51.136;3.502;2023-06-14T08:10:47;15.68;;;6.88;;
31798;SDS011;18374;51.136;3.502;2023-06-14T08:13:14;12.93;;;6.07;;
31798;SDS011;18374;51.136;3.502;2023-06-14T08:15:42;17.40;;;7.20;;
31798;SDS011;18374;51.136;3.502;2023-06-14T08:18:11;10.27;;;5.30;;
31798;SDS011;18374;51.136;3.502;2023-06-14T08:20:38;10.25;;;5.28;;
31798;SDS011;18374;51.136;3.502;2023-06-14T08:23:07;12.82;;;5.30;;
31798;SDS011;18374;51.136;3.502;2023-06-14T08:25:36;8.45;;;4.47;;
31798;SDS011;18374;51.136;3.502;2023-06-14T08:28:04;11.57;;;5.10;;
31798;SDS011;18374;51.136;3.502;2023-06-14T08:30:31;9.07;;;4.47;;
31798;SDS011;18374;51.136;3.502;2023-06-14T08:32:59;7.95;;;5.07;;
31798;SDS011;18374;51.136;3.502;2023-06-14T08:35:41;6.93;;;4.43;;
31798;SDS011;18374;51.136;3.502;2023-06-14T08:38:10;8.35;;;4.63;;
31798;SDS011;18374;51.136;3.502;2023-06-14T08:40:39;7.68;;;4.65;;
31798;SDS011;18374;51.136;3.502;2023-06-14T08:43:09;8.18;;;5.07;;
31798;SDS011;18374;51.136;3.502;2023-06-14T08:45:37;8.55;;;5.10;;
31798;SDS011;18374;51.136;3.502;2023-06-14T08:48:05;12.50;;;5.32;;
31798;SDS011;18374;51.136;3.502;2023-06-14T08:50:35;9.52;;;4.68;;
31798;SDS011;18374;51.136;3.502;2023-06-14T08:53:08;10.20;;;4.60;;
31798;SDS011;18374;51.136;3.502;2023-06-14T08:55:46;7.22;;;4.30;;
31798;SDS011;18374;51.136;3.502;2023-06-14T08:58:14;11.48;;;4.82;;
31798;SDS011;18374;51.136;3.502;2023-06-14T09:00:42;8.82;;;4.88;;
31798;SDS011;18374;51.136;3.502;2023-06-14T09:03:11;10.00;;;5.57;;
31798;SDS011;18374;51.136;3.502;2023-06-14T09:05:42;7.93;;;5.00;;
31798;SDS011;18374;51.136;3.502;2023-06-14T09:08:11;8.75;;;5.00;;
31798;SDS011;18374;51.136;3.502;2023-06-14T09:10:39;9.38;;;5.65;;
31798;SDS011;18374;51.136;3.502;2023-06-14T09:13:08;12.25;;;5.40;;
31798;SDS011;18374;51.136;3.502;2023-06-14T09:15:36;9.73;;;5.20;;
31798;SDS011;18374;51.136;3.502;2023-06-14T09:18:03;8.82;;;4.68;;
31798;SDS011;18374;51.136;3.502;2023-06-14T09:20:33;12.90;;;5.60;;
31798;SDS011;18374;51.136;3.502;2023-06-14T09:23:01;6.78;;;5.43;;
31798;SDS011;18374;51.136;3.502;2023-06-14T09:25:31;11.48;;;6.13;;
31798;SDS011;18374;51.136;3.502;2023-06-14T09:28:07;8.02;;;4.60;;
31798;SDS011;18374;51.136;3.502;2023-06-14T09:30:36;7.93;;;4.03;;
31798;SDS011;18374;51.136;3.502;2023-06-14T09:33:05;9.45;;;4.47;;
31798;SDS011;18374;51.136;3.502;2023-06-14T09:35:33;6.53;;;4.20;;
31798;SDS011;18374;51.136;3.502;2023-06-14T09:38:01;8.20;;;4.28;;
31798;SDS011;18374;51.136;3.502;2023-06-14T09:40:30;7.55;;;4.38;;
31798;SDS011;18374;51.136;3.502;2023-06-14T09:43:06;6.93;;;4.03;;
31798;SDS011;18374;51.136;3.502;2023-06-14T09:45:40;6.03;;;4.25;;
31798;SDS011;18374;51.136;3.502;2023-06-14T09:48:12;8.52;;;4.07;;
31798;SDS011;18374;51.136;3.502;2023-06-14T09:50:48;6.20;;;4.55;;
31798;SDS011;18374;51.136;3.502;2023-06-14T09:53:19;8.38;;;3.83;;
31798;SDS011;18374;51.136;3.502;2023-06-14T09:55:50;8.38;;;3.55;;
31798;SDS011;18374;51.136;3.502;2023-06-14T09:58:22;6.90;;;3.90;;
31798;SDS011;18374;51.136;3.502;2023-06-14T10:00:53;5.05;;;3.30;;
31798;SDS011;18374;51.136;3.502;2023-06-14T10:03:28;6.03;;;3.60;;
31798;SDS011;18374;51.136;3.502;2023-06-14T10:06:10;11.20;;;4.35;;
31798;SDS011;18374;51.136;3.502;2023-06-14T10:08:38;9.82;;;3.60;;
31798;SDS011;18374;51.136;3.502;2023-06-14T10:11:07;5.15;;;3.65;;
31798;SDS011;18374;51.136;3.502;2023-06-14T10:13:35;7.70;;;3.75;;
31798;SDS011;18374;51.136;3.502;2023-06-14T10:24:38;6.47;;;3.40;;
31798;SDS011;18374;51.136;3.502;2023-06-14T10:27:12;6.72;;;3.42;;
31798;SDS011;18374;51.136;3.502;2023-06-14T10:32:21;5.75;;;3.55;;
31798;SDS011;18374;51.136;3.502;2023-06-14T10:34:56;6.57;;;3.35;;
31798;SDS011;18374;51.136;3.502;2023-06-14T10:37:26;7.90;;;3.50;;
31798;SDS011;18374;51.136;3.502;2023-06-14T10:39:54;9.48;;;4.00;;
31798;SDS011;18374;51.136;3.502;2023-06-14T10:42:23;8.80;;;3.92;;
31798;SDS011;18374;51.136;3.502;2023-06-14T10:45:01;4.65;;;3.40;;
31798;SDS011;18374;51.136;3.502;2023-06-14T10:47:34;7.38;;;4.03;;
31798;SDS011;18374;51.136;3.502;2023-06-14T10:50:05;4.18;;;3.40;;
31798;SDS011;18374;51.136;3.502;2023-06-14T10:52:39;9.27;;;3.45;;
31798;SDS011;18374;51.136;3.502;2023-06-14T10:55:14;5.47;;;3.60;;
31798;SDS011;18374;51.136;3.502;2023-06-14T10:57:44;10.15;;;3.80;;
31798;SDS011;18374;51.136;3.502;2023-06-14T11:00:23;4.72;;;3.50;;
31798;SDS011;18374;51.136;3.502;2023-06-14T11:10:58;8.05;;;3.80;;
31798;SDS011;18374;51.136;3.502;2023-06-14T11:13:27;5.75;;;3.95;;
31798;SDS011;18374;51.136;3.502;2023-06-14T11:15:58;6.05;;;3.60;;
31798;SDS011;18374;51.136;3.502;2023-06-14T11:18:27;6.72;;;3.80;;
31798;SDS011;18374;51.136;3.502;2023-06-14T11:20:55;7.38;;;3.45;;
31798;SDS011;18374;51.136;3.502;2023-06-14T11:23:23;10.10;;;3.95;;
31798;SDS011;18374;51.136;3.502;2023-06-14T11:25:51;5.53;;;3.85;;
31798;SDS011;18374;51.136;3.502;2023-06-14T11:28:19;5.18;;;4.00;;
31798;SDS011;18374;51.136;3.502;2023-06-14T11:30:49;6.90;;;4.28;;
31798;SDS011;18374;51.136;3.502;2023-06-14T11:33:27;7.10;;;4.05;;
31798;SDS011;18374;51.136;3.502;2023-06-14T11:35:55;11.57;;;3.92;;
31798;SDS011;18374;51.136;3.502;2023-06-14T11:38:24;6.95;;;4.50;;
31798;SDS011;18374;51.136;3.502;2023-06-14T11:40:53;6.20;;;4.07;;
31798;SDS011;18374;51.136;3.502;2023-06-14T11:43:25;6.00;;;3.72;;
31798;SDS011;18374;51.136;3.502;2023-06-14T11:45:53;7.47;;;4.03;;
31798;SDS011;18374;51.136;3.502;2023-06-14T11:48:41;8.95;;;3.65;;
31798;SDS011;18374;51.136;3.502;2023-06-14T11:51:10;6.80;;;4.15;;
31798;SDS011;18374;51.136;3.502;2023-06-14T11:53:38;10.88;;;4.80;;
31798;SDS011;18374;51.136;3.502;2023-06-14T11:56:06;6.93;;;4.22;;
31798;SDS011;18374;51.136;3.502;2023-06-14T11:58:34;9.13;;;4.20;;
31798;SDS011;18374;51.136;3.502;2023-06-14T12:01:05;6.93;;;4.10;;
31798;SDS011;18374;51.136;3.502;2023-06-14T12:03:33;6.72;;;3.88;;
31798;SDS011;18374;51.136;3.502;2023-06-14T12:06:06;6.43;;;4.15;;
31798;SDS011;18374;51.136;3.502;2023-06-14T12:08:36;10.77;;;3.70;;
31798;SDS011;18374;51.136;3.502;2023-06-14T12:11:14;8.77;;;5.05;;
31798;SDS011;18374;51.136;3.502;2023-06-14T12:13:43;5.70;;;3.90;;
31798;SDS011;18374;51.136;3.502;2023-06-14T12:16:12;9.90;;;4.15;;
31798;SDS011;18374;51.136;3.502;2023-06-14T12:18:40;8.75;;;4.55;;
31798;SDS011;18374;51.136;3.502;2023-06-14T12:21:10;12.52;;;4.68;;
31798;SDS011;18374;51.136;3.502;2023-06-14T12:23:48;9.35;;;4.43;;
31798;SDS011;18374;51.136;3.502;2023-06-14T12:26:18;7.63;;;4.13;;
31798;SDS011;18374;51.136;3.502;2023-06-14T12:28:47;9.38;;;4.57;;
31798;SDS011;18374;51.136;3.502;2023-06-14T12:31:15;8.02;;;4.20;;
31798;SDS011;18374;51.136;3.502;2023-06-14T12:33:43;10.43;;;4.68;;
31798;SDS011;18374;51.136;3.502;2023-06-14T12:36:16;5.68;;;4.00;;
31798;SDS011;18374;51.136;3.502;2023-06-14T12:38:44;8.90;;;4.10;;
31798;SDS011;18374;51.136;3.502;2023-06-14T12:41:13;7.28;;;4.10;;
31798;SDS011;18374;51.136;3.502;2023-06-14T12:43:41;11.98;;;4.05;;
31798;SDS011;18374;51.136;3.502;2023-06-14T12:46:09;7.38;;;4.15;;
31798;SDS011;18374;51.136;3.502;2023-06-14T12:48:37;5.60;;;4.10;;
31798;SDS011;18374;51.136;3.502;2023-06-14T12:51:05;7.78;;;4.50;;
31798;SDS011;18374;51.136;3.502;2023-06-14T12:53:32;9.63;;;4.53;;
31798;SDS011;18374;51.136;3.502;2023-06-14T12:56:00;6.22;;;4.13;;
31798;SDS011;18374;51.136;3.502;2023-06-14T12:58:28;6.97;;;4.13;;
31798;SDS011;18374;51.136;3.502;2023-06-14T13:00:55;9.25;;;3.67;;
31798;SDS011;18374;51.136;3.502;2023-06-14T13:03:23;8.82;;;3.83;;
31798;SDS011;18374;51.136;3.502;2023-06-14T13:05:51;8.07;;;3.92;;
31798;SDS011;18374;51.136;3.502;2023-06-14T13:08:19;9.90;;;3.90;;
31798;SDS011;18374;51.136;3.502;2023-06-14T13:10:51;8.00;;;4.30;;
31798;SDS011;18374;51.136;3.502;2023-06-14T13:13:18;8.10;;;3.75;;
31798;SDS011;18374;51.136;3.502;2023-06-14T13:15:47;8.93;;;3.70;;
31798;SDS011;18374;51.136;3.502;2023-06-14T13:18:16;14.00;;;4.00;;
31798;SDS011;18374;51.136;3.502;2023-06-14T13:20:45;8.82;;;4.03;;
31798;SDS011;18374;51.136;3.502;2023-06-14T13:23:15;6.13;;;3.92;;
31798;SDS011;18374;51.136;3.502;2023-06-14T13:25:43;6.00;;;3.78;;
31798;SDS011;18374;51.136;3.502;2023-06-14T13:28:11;4.80;;;3.58;;
31798;SDS011;18374;51.136;3.502;2023-06-14T13:30:39;5.85;;;4.15;;
31798;SDS011;18374;51.136;3.502;2023-06-14T13:33:07;6.90;;;3.85;;
31798;SDS011;18374;51.136;3.502;2023-06-14T13:35:35;7.70;;;3.97;;
31798;SDS011;18374;51.136;3.502;2023-06-14T13:38:03;8.40;;;3.70;;
31798;SDS011;18374;51.136;3.502;2023-06-14T13:40:30;13.23;;;3.83;;
31798;SDS011;18374;51.136;3.502;2023-06-14T13:42:58;9.52;;;3.67;;
31798;SDS011;18374;51.136;3.502;2023-06-14T13:45:26;6.15;;;3.70;;
31798;SDS011;18374;51.136;3.502;2023-06-14T13:47:54;11.30;;;4.43;;
31798;SDS011;18374;51.136;3.502;2023-06-14T13:50:22;7.20;;;3.83;;
31798;SDS011;18374;51.136;3.502;2023-06-14T13:52:50;8.40;;;3.40;;
31798;SDS011;18374;51.136;3.502;2023-06-14T13:55:17;7.85;;;3.20;;
31798;SDS011;18374;51.136;3.502;2023-06-14T13:57:45;6.28;;;3.60;;
31798;SDS011;18374;51.136;3.502;2023-06-14T14:00:13;4.10;;;3.40;;
31798;SDS011;18374;51.136;3.502;2023-06-14T14:02:42;8.10;;;3.55;;
31798;SDS011;18374;51.136;3.502;2023-06-14T14:05:10;10.27;;;3.83;;
31798;SDS011;18374;51.136;3.502;2023-06-14T14:07:37;7.93;;;3.72;;
31798;SDS011;18374;51.136;3.502;2023-06-14T14:10:06;3.85;;;3.20;;
31798;SDS011;18374;51.136;3.502;2023-06-14T14:12:35;10.82;;;3.70;;
31798;SDS011;18374;51.136;3.502;2023-06-14T14:15:05;10.60;;;3.75;;
31798;SDS011;18374;51.136;3.502;2023-06-14T14:17:40;9.48;;;3.42;;
31798;SDS011;18374;51.136;3.502;2023-06-14T14:20:08;8.82;;;3.70;;
31798;SDS011;18374;51.136;3.502;2023-06-14T14:22:40;8.85;;;3.28;;
31798;SDS011;18374;51.136;3.502;2023-06-14T14:25:11;5.78;;;3.90;;
31798;SDS011;18374;51.136;3.502;2023-06-14T14:27:38;6.15;;;3.78;;
31798;SDS011;18374;51.136;3.502;2023-06-14T14:30:07;6.75;;;3.53;;
31798;SDS011;18374;51.136;3.502;2023-06-14T14:32:35;9.60;;;4.18;;
31798;SDS011;18374;51.136;3.502;2023-06-14T14:35:03;6.85;;;3.35;;
31798;SDS011;18374;51.136;3.502;2023-06-14T14:37:31;4.88;;;3.45;;
31798;SDS011;18374;51.136;3.502;2023-06-14T14:39:59;3.75;;;3.15;;
31798;SDS011;18374;51.136;3.502;2023-06-14T14:42:27;5.70;;;3.75;;
31798;SDS011;18374;51.136;3.502;2023-06-14T14:44:55;6.18;;;3.30;;
31798;SDS011;18374;51.136;3.502;2023-06-14T14:47:22;4.82;;;2.92;;
31798;SDS011;18374;51.136;3.502;2023-06-14T14:49:51;4.78;;;2.95;;
31798;SDS011;18374;51.136;3.502;2023-06-14T14:52:18;6.28;;;3.08;;
31798;SDS011;18374;51.136;3.502;2023-06-14T14:54:50;3.20;;;2.90;;
31798;SDS011;18374;51.136;3.502;2023-06-14T14:57:18;4.60;;;2.92;;
31798;SDS011;18374;51.136;3.502;2023-06-14T14:59:46;6.00;;;3.15;;
31798;SDS011;18374;51.136;3.502;2023-06-14T15:02:13;6.05;;;3.22;;
31798;SDS011;18374;51.136;3.502;2023-06-14T15:04:41;6.32;;;2.78;;
31798;SDS011;18374;51.136;3.502;2023-06-14T15:07:09;4.63;;;2.80;;
31798;SDS011;18374;51.136;3.502;2023-06-14T15:09:37;5.93;;;3.20;;
31798;SDS011;18374;51.136;3.502;2023-06-14T15:12:05;5.10;;;3.08;;
31798;SDS011;18374;51.136;3.502;2023-06-14T15:14:34;6.22;;;2.75;;
31798;SDS011;18374;51.136;3.502;2023-06-14T15:17:01;4.18;;;2.60;;
31798;SDS011;18374;51.136;3.502;2023-06-14T15:19:33;7.40;;;3.08;;